Time;durP1;ratioP1;P1;durP2;ratioP2;P2;SDS_P1;SDS_P2;PMS_P1;PMS_P2;Temp;Humidity;BMP_temperature;BMP_pressure;BME280_temperature;BME280_humidity;BME280_pressure;Samples;Min_cycle;Max_cycle;Signal;HPM_P1;HPM_P2
2023/09/04 00:02:18;;;;;;;5.90;4.80;;;24.50;61.80;;;;;;222061;1268;22606;-52
2023/09/04 00:07:21;;;;;;;7.20;4.90;;;24.40;61.90;;;;;;222540;1265;23932;-54
2023/09/04 00:12:25;;;;;;;9.00;5.00;;;24.30;62.10;;;;;;222368;1263;22540;-56
2023/09/04 00:17:28;;;;;;;8.70;4.30;;;24.30;62.30;;;;;;222237;1254;288173;-54
2023/09/04 00:22:30;;;;;;;6.30;4.50;;;24.30;62.30;;;;;;222451;1260;25781;-54
2023/09/04 00:27:33;;;;;;;6.10;4.40;;;24.10;62.60;;;;;;222785;1263;22600;-54
2023/09/04 00:32:36;;;;;;;6.70;4.50;;;24.10;62.80;;;;;;222502;1256;25286;-55
2023/09/04 00:37:39;;;;;;;5.90;5.00;;;24.10;62.90;;;;;;222631;1261;25331;-54
2023/09/04 00:42:42;;;;;;;5.40;4.10;;;24.10;63.00;;;;;;222799;1260;23933;-53
2023/09/04 00:47:45;;;;;;;5.80;4.60;;;24.10;62.90;;;;;;222522;1261;24249;-56
2023/09/04 00:52:56;;;;;;;6.00;4.10;;;24.00;62.90;;;;;;222937;1260;22640;-54
2023/09/04 00:58:01;;;;;;;4.40;4.00;;;24.10;62.90;;;;;;222592;1261;25223;-54
2023/09/04 01:03:05;;;;;;;4.50;4.10;;;24.10;62.80;;;;;;222588;1260;22513;-55
2023/09/04 01:08:09;;;;;;;6.00;4.10;;;24.10;63.00;;;;;;222845;1261;24244;-54
2023/09/04 01:13:55;;;;;;;4.50;3.70;;;24.20;62.70;;;;;;222232;1264;22644;-54
2023/09/04 01:19:00;;;;;;;6.10;4.10;;;24.20;62.50;;;;;;223842;1270;22553;-54
2023/09/04 01:24:04;;;;;;;4.70;3.70;;;24.40;62.30;;;;;;220451;1270;25074;-53
2023/09/04 01:29:18;;;;;;;6.00;4.00;;;24.50;62.00;;;;;;222042;1272;22705;-55
2023/09/04 01:34:32;;;;;;;4.70;3.80;;;24.50;61.90;;;;;;220686;1270;25415;-53
2023/09/04 01:39:37;;;;;;;4.50;4.00;;;24.40;62.20;;;;;;220837;1271;22569;-54
2023/09/04 01:44:41;;;;;;;6.50;4.10;;;24.30;62.20;;;;;;220996;1270;25342;-55
2023/09/04 01:49:44;;;;;;;3.70;3.10;;;24.30;62.50;;;;;;220994;1271;22532;-54
2023/09/04 01:54:47;;;;;;;5.40;3.80;;;24.20;62.50;;;;;;222145;1260;22517;-53
2023/09/04 01:59:50;;;;;;;4.80;3.80;;;24.00;63.10;;;;;;222621;1260;22521;-57
2023/09/04 02:04:53;;;;;;;4.60;3.20;;;23.90;63.40;;;;;;222526;1265;22633;-54
2023/09/04 02:09:55;;;;;;;4.10;3.50;;;23.90;63.30;;;;;;222616;1262;23887;-56
2023/09/04 02:14:58;;;;;;;3.90;3.10;;;23.90;63.50;;;;;;222581;1253;22769;-55
2023/09/04 02:20:03;;;;;;;3.30;3.00;;;23.90;63.30;;;;;;222201;1265;22534;-54
2023/09/04 02:25:07;;;;;;;3.50;3.10;;;23.90;63.50;;;;;;222391;1265;22716;-54
2023/09/04 02:30:11;;;;;;;3.20;2.90;;;23.90;63.40;;;;;;222322;1256;24246;-56
2023/09/04 02:35:13;;;;;;;3.70;3.20;;;23.90;63.60;;;;;;222555;1263;22573;-56
2023/09/04 02:40:16;;;;;;;3.40;3.10;;;23.90;63.50;;;;;;222430;1266;24099;-52
2023/09/04 02:45:19;;;;;;;4.00;3.40;;;23.80;64.60;;;;;;221902;1266;22537;-54
2023/09/04 02:50:22;;;;;;;3.70;3.40;;;23.80;63.70;;;;;;222084;1258;22741;-54
2023/09/04 02:55:25;;;;;;;3.40;3.00;;;23.80;63.80;;;;;;222383;1263;23880;-53
2023/09/04 03:00:27;;;;;;;3.70;3.20;;;23.80;63.80;;;;;;221987;1268;22521;-55
2023/09/04 03:05:32;;;;;;;4.50;3.70;;;23.70;63.80;;;;;;222169;1266;22714;-53
2023/09/04 03:10:35;;;;;;;5.10;3.00;;;23.70;63.80;;;;;;222403;1261;25290;-54
2023/09/04 03:15:38;;;;;;;3.50;3.20;;;23.70;64.00;;;;;;224941;1260;22628;-52
2023/09/04 03:20:43;;;;;;;3.00;2.70;;;23.80;63.80;;;;;;225749;1265;24344;-53
2023/09/04 03:25:45;;;;;;;3.20;2.90;;;23.80;63.50;;;;;;222890;1263;22794;-52
2023/09/04 03:30:49;;;;;;;4.40;3.10;;;23.80;63.70;;;;;;223717;1268;22616;-58
2023/09/04 03:35:57;;;;;;;3.90;3.10;;;23.80;63.70;;;;;;222510;1265;22646;-54
2023/09/04 03:41:00;;;;;;;3.50;2.70;;;23.80;63.90;;;;;;222560;1261;22524;-54
2023/09/04 03:46:03;;;;;;;2.90;2.70;;;23.70;63.80;;;;;;222793;1268;25344;-54
2023/09/04 03:51:05;;;;;;;2.80;2.60;;;23.70;64.00;;;;;;222890;1266;22528;-55
2023/09/04 03:56:10;;;;;;;3.00;2.70;;;23.70;64.20;;;;;;222698;1263;23918;-55
2023/09/04 04:01:12;;;;;;;2.80;2.60;;;23.60;64.10;;;;;;222238;1268;22511;-55
2023/09/04 04:06:15;;;;;;;2.80;2.40;;;23.70;64.00;;;;;;222340;1268;22574;-54
2023/09/04 04:11:21;;;;;;;2.90;2.70;;;23.60;64.20;;;;;;222840;1266;22591;-55
2023/09/04 04:16:24;;;;;;;3.60;2.70;;;23.60;64.90;;;;;;222524;1263;24313;-55
2023/09/04 04:21:26;;;;;;;2.80;2.60;;;23.60;64.40;;;;;;222970;1263;22518;-55
2023/09/04 04:26:30;;;;;;;2.80;2.60;;;23.60;64.20;;;;;;222520;1266;23904;-54
2023/09/04 04:31:33;;;;;;;5.80;2.50;;;23.60;64.20;;;;;;222698;1265;25264;-51
2023/09/04 04:36:36;;;;;;;3.40;2.40;;;23.60;64.30;;;;;;222498;1260;22651;-55
2023/09/04 04:41:39;;;;;;;2.70;2.50;;;23.60;64.20;;;;;;223434;1266;22610;-53
2023/09/04 04:46:42;;;;;;;3.80;2.40;;;23.60;64.10;;;;;;224185;1268;22636;-52
2023/09/04 04:51:45;;;;;;;2.90;2.70;;;23.70;64.00;;;;;;222255;1266;22538;-53
2023/09/04 04:56:48;;;;;;;2.70;2.40;;;23.70;64.10;;;;;;222709;1263;24231;-56
2023/09/04 05:01:51;;;;;;;2.80;2.20;;;23.60;64.20;;;;;;222720;1266;22515;-54
2023/09/04 05:06:54;;;;;;;2.70;2.50;;;23.60;64.30;;;;;;222367;1266;22677;-55
2023/09/04 05:11:57;;;;;;;2.20;2.00;;;23.60;64.30;;;;;;222811;1268;23894;-56
2023/09/04 05:17:00;;;;;;;2.70;2.20;;;23.60;64.30;;;;;;222461;1267;22514;-54
2023/09/04 05:22:03;;;;;;;2.50;2.30;;;23.60;64.10;;;;;;222610;1263;23815;-55
2023/09/04 05:27:05;;;;;;;3.50;2.50;;;23.60;64.50;;;;;;222776;1266;22511;-56
2023/09/04 05:32:08;;;;;;;9.50;1.90;;;23.60;64.50;;;;;;222644;1268;24193;-49
2023/09/04 05:37:12;;;;;;;2.80;2.30;;;23.60;64.40;;;;;;222181;1268;22511;-45
2023/09/04 05:42:14;;;;;;;3.40;2.60;;;23.60;64.30;;;;;;222483;1268;22504;-46
2023/09/04 05:47:17;;;;;;;5.60;3.00;;;23.60;64.40;;;;;;222379;1266;22591;-49
2023/09/04 05:52:21;;;;;;;3.10;2.80;;;23.70;65.30;;;;;;222678;1268;22574;-46
2023/09/04 05:57:24;;;;;;;7.70;2.50;;;23.60;65.00;;;;;;222392;1266;22524;-49
2023/09/04 06:02:27;;;;;;;3.90;2.40;;;23.70;65.00;;;;;;223372;1264;22552;-48
2023/09/04 06:07:30;;;;;;;2.30;2.10;;;23.80;64.50;;;;;;222787;1260;22643;-45
2023/09/04 06:12:33;;;;;;;2.40;2.20;;;23.90;65.10;;;;;;222272;1266;22514;-47
2023/09/04 06:17:35;;;;;;;3.40;2.20;;;23.90;64.70;;;;;;222057;1269;25094;-45
2023/09/04 06:22:39;;;;;;;2.50;2.30;;;23.90;65.30;;;;;;222554;1266;22506;-45
2023/09/04 06:27:42;;;;;;;3.70;2.20;;;23.80;65.50;;;;;;222250;1260;22662;-47
2023/09/04 06:32:46;;;;;;;3.90;1.90;;;23.70;66.00;;;;;;222323;1267;23927;-45
2023/09/04 06:37:50;;;;;;;2.10;1.90;;;23.70;65.70;;;;;;222503;1266;22619;-48
2023/09/04 06:42:53;;;;;;;6.90;2.30;;;23.90;65.70;;;;;;222643;1259;25164;-47
2023/09/04 06:47:56;;;;;;;9.20;2.60;;;23.90;65.20;;;;;;222386;1268;22672;-46
2023/09/04 06:52:59;;;;;;;5.70;2.20;;;23.80;65.30;;;;;;222435;1263;22759;-49
2023/09/04 06:58:03;;;;;;;3.00;2.40;;;23.80;64.90;;;;;;222108;1256;22527;-48
2023/09/04 07:03:06;;;;;;;3.30;2.10;;;23.70;64.40;;;;;;223232;1266;22986;-44
2023/09/04 07:08:09;;;;;;;4.90;1.80;;;23.80;63.30;;;;;;222670;1266;22651;-48
2023/09/04 07:13:12;;;;;;;5.70;1.90;;;23.80;63.20;;;;;;227936;1264;22514;-48
2023/09/04 07:18:15;;;;;;;6.40;2.30;;;23.80;61.50;;;;;;222621;1266;22563;-50
2023/09/04 07:23:18;;;;;;;4.40;2.30;;;23.80;61.10;;;;;;222619;1259;22645;-48
2023/09/04 07:28:24;;;;;;;2.40;2.10;;;23.70;61.40;;;;;;222389;1263;22512;-45
2023/09/04 07:33:27;;;;;;;7.50;2.00;;;23.70;61.90;;;;;;222071;1268;22511;-52
2023/09/04 07:38:31;;;;;;;6.80;2.60;;;23.50;61.50;;;;;;222303;1266;25440;-47
2023/09/04 07:43:34;;;;;;;4.40;2.00;;;23.60;61.40;;;;;;222401;1266;22647;-49
2023/09/04 07:48:37;;;;;;;3.30;1.80;;;23.50;61.10;;;;;;222608;1259;22556;-49
2023/09/04 07:53:40;;;;;;;2.40;2.00;;;23.60;60.80;;;;;;222273;1261;22757;-48
2023/09/04 07:58:44;;;;;;;4.40;2.10;;;23.50;60.80;;;;;;221834;1269;25335;-47
2023/09/04 08:03:46;;;;;;;4.80;2.10;;;23.50;60.70;;;;;;222370;1264;22706;-49
2023/09/04 08:08:50;;;;;;;3.90;2.30;;;23.60;61.40;;;;;;222734;1266;22599;-52
2023/09/04 08:13:53;;;;;;;3.50;2.50;;;23.80;62.10;;;;;;222145;1260;22586;-50
2023/09/04 08:18:56;;;;;;;2.80;2.00;;;23.60;60.90;;;;;;222054;1268;25476;-47
2023/09/04 08:23:59;;;;;;;3.50;1.60;;;23.50;60.80;;;;;;222304;1263;25227;-48
2023/09/04 08:29:02;;;;;;;18.70;3.70;;;23.50;60.80;;;;;;222089;1266;23397;-57
2023/09/04 08:34:04;;;;;;;6.40;2.10;;;23.40;61.30;;;;;;222512;1266;24371;-48
2023/09/04 08:39:07;;;;;;;5.00;2.10;;;23.30;61.30;;;;;;222275;1269;22525;-49
2023/09/04 08:44:11;;;;;;;5.20;1.80;;;23.20;61.50;;;;;;222213;1269;22566;-48
2023/09/04 08:49:16;;;;;;;3.00;1.80;;;23.20;61.50;;;;;;222552;1265;23312;-48
2023/09/04 08:54:19;;;;;;;2.80;1.80;;;23.20;61.20;;;;;;222593;1269;22669;-53
2023/09/04 08:59:22;;;;;;;5.80;1.70;;;23.10;61.20;;;;;;222404;1263;24364;-49
2023/09/04 09:04:26;;;;;;;5.90;2.60;;;23.20;60.70;;;;;;222215;1261;22540;-50
2023/09/04 09:09:30;;;;;;;2.90;1.80;;;23.20;60.40;;;;;;222750;1262;22521;-57
2023/09/04 09:14:42;;;;;;;3.50;1.90;;;23.10;60.10;;;;;;222597;1266;22517;-56
2023/09/04 09:19:45;;;;;;;3.60;2.10;;;23.30;60.60;;;;;;222230;1260;22686;-53
2023/09/04 09:24:52;;;;;;;5.90;2.10;;;23.30;59.70;;;;;;222398;1267;22547;-53
2023/09/04 09:29:57;;;;;;;3.40;2.00;;;23.30;59.80;;;;;;222467;1268;24212;-54
2023/09/04 09:35:01;;;;;;;1.90;1.70;;;23.30;59.80;;;;;;222832;1268;22521;-53
2023/09/04 09:40:09;;;;;;;1.80;1.50;;;23.40;60.00;;;;;;222525;1268;23922;-52
2023/09/04 09:45:13;;;;;;;2.70;1.50;;;23.40;59.40;;;;;;222365;1266;25332;-53
2023/09/04 09:50:17;;;;;;;3.00;2.20;;;23.50;59.10;;;;;;222387;1254;23220;-56
2023/09/04 09:55:24;;;;;;;3.00;1.80;;;23.50;60.30;;;;;;222099;1266;24276;-54
2023/09/04 10:00:29;;;;;;;2.10;1.90;;;23.60;59.60;;;;;;222432;1263;27989;-60
2023/09/04 10:05:34;;;;;;;4.50;1.60;;;23.90;58.90;;;;;;222520;1263;22537;-59
2023/09/04 10:10:40;;;;;;;4.90;1.70;;;24.10;58.40;;;;;;222458;1268;22513;-56
2023/09/04 10:15:47;;;;;;;3.10;1.70;;;24.20;59.00;;;;;;222205;1265;22648;-55
2023/09/04 10:20:51;;;;;;;2.90;1.80;;;24.30;58.60;;;;;;222278;1268;22514;-57
2023/09/04 10:26:08;;;;;;;4.00;2.10;;;24.30;58.80;;;;;;222638;1268;24337;-53
2023/09/04 10:31:12;;;;;;;6.10;1.90;;;24.30;58.70;;;;;;222907;1268;25394;-57
2023/09/04 10:36:20;;;;;;;3.40;2.00;;;24.50;58.60;;;;;;222508;1257;24096;-55
2023/09/04 10:41:28;;;;;;;2.80;1.70;;;24.50;58.70;;;;;;222248;1263;24195;-55
2023/09/04 10:46:32;;;;;;;3.30;2.10;;;24.50;58.50;;;;;;222126;1267;24527;-54
2023/09/04 10:51:37;;;;;;;5.60;2.20;;;24.60;58.20;;;;;;222418;1266;23907;-55
2023/09/04 10:57:06;;;;;;;2.40;1.80;;;24.70;58.10;;;;;;222542;1268;22856;-56
2023/09/04 11:02:32;;;;;;;2.80;1.60;;;24.80;57.80;;;;;;222614;1263;23111;-57
2023/09/04 11:07:36;;;;;;;3.30;2.30;;;24.80;57.80;;;;;;222675;1265;23181;-54
2023/09/04 11:12:44;;;;;;;2.30;1.70;;;24.90;57.40;;;;;;222345;1266;22518;-59
2023/09/04 11:17:51;;;;;;;2.40;1.90;;;24.70;57.20;;;;;;222190;1266;24206;-55
2023/09/04 11:22:57;;;;;;;3.00;1.60;;;24.80;58.00;;;;;;222410;1268;22630;-54
2023/09/04 11:27:59;;;;;;;1.90;1.70;;;25.00;57.20;;;;;;222639;1268;22788;-57
2023/09/04 11:33:03;;;;;;;1.70;1.50;;;24.90;56.50;;;;;;222540;1263;24193;-58
2023/09/04 11:38:26;;;;;;;2.70;1.80;;;25.00;56.80;;;;;;222379;1261;22532;-56
2023/09/04 11:43:29;;;;;;;2.10;1.70;;;24.90;56.90;;;;;;222624;1264;24054;-57
2023/09/04 11:48:32;;;;;;;2.60;1.70;;;25.00;56.90;;;;;;221927;1264;23003;-56
2023/09/04 11:53:37;;;;;;;1.80;1.70;;;25.00;56.90;;;;;;222380;1261;22543;-58
2023/09/04 11:58:40;;;;;;;4.20;2.30;;;25.10;56.70;;;;;;222915;1269;22521;-59
2023/09/04 12:03:44;;;;;;;2.80;1.60;;;25.20;56.90;;;;;;222653;1268;22642;-58
2023/09/04 12:08:48;;;;;;;2.70;1.80;;;25.10;56.90;;;;;;222733;1263;22834;-58
2023/09/04 12:13:53;;;;;;;2.60;1.80;;;25.10;56.80;;;;;;222384;1266;660848;-58
2023/09/04 12:19:00;;;;;;;2.60;1.70;;;25.10;56.50;;;;;;222477;1268;25850;-56
2023/09/04 12:24:12;;;;;;;2.20;1.70;;;25.10;56.50;;;;;;222808;1266;24406;-56
2023/09/04 12:29:19;;;;;;;2.40;2.10;;;25.00;56.60;;;;;;222640;1266;22545;-58
2023/09/04 12:34:30;;;;;;;4.00;1.60;;;25.10;56.20;;;;;;222350;1268;23998;-57
2023/09/04 12:39:34;;;;;;;4.30;1.90;;;25.20;56.10;;;;;;222778;1257;23889;-58
2023/09/04 12:44:40;;;;;;;4.30;2.00;;;25.30;56.30;;;;;;222423;1267;22576;-60
2023/09/04 12:49:44;;;;;;;2.80;2.30;;;25.30;55.50;;;;;;222564;1268;22530;-56
2023/09/04 12:54:48;;;;;;;4.00;2.30;;;25.20;55.80;;;;;;223098;1268;23760;-60
2023/09/04 12:59:53;;;;;;;2.30;2.10;;;25.30;55.90;;;;;;222556;1263;24193;-53
2023/09/04 13:04:58;;;;;;;3.50;2.00;;;25.10;56.40;;;;;;222364;1269;25345;-54
2023/09/04 13:10:04;;;;;;;4.90;2.10;;;25.10;56.70;;;;;;222451;1263;25230;-56
2023/09/04 13:15:10;;;;;;;2.90;2.20;;;25.10;56.70;;;;;;223164;1266;25427;-56
2023/09/04 13:20:15;;;;;;;4.80;2.30;;;25.10;56.90;;;;;;222884;1266;22564;-56
2023/09/04 13:25:18;;;;;;;4.30;2.30;;;25.10;57.00;;;;;;222194;1267;22686;-57
2023/09/04 13:30:20;;;;;;;2.40;2.00;;;25.10;57.40;;;;;;222427;1269;22835;-59
2023/09/04 13:35:23;;;;;;;5.00;2.60;;;25.10;56.30;;;;;;222256;1266;24266;-56
2023/09/04 13:40:27;;;;;;;3.20;2.00;;;25.10;57.00;;;;;;222977;1257;22704;-57
2023/09/04 13:45:32;;;;;;;5.30;2.10;;;25.10;56.90;;;;;;222993;1266;22587;-59
2023/09/04 13:50:37;;;;;;;2.20;1.90;;;25.00;57.70;;;;;;222417;1267;25261;-55
2023/09/04 13:55:41;;;;;;;2.30;2.00;;;25.00;57.20;;;;;;222739;1260;22643;-53
2023/09/04 14:00:46;;;;;;;6.50;2.80;;;25.10;57.10;;;;;;222666;1268;22619;-55
2023/09/04 14:05:50;;;;;;;6.20;3.00;;;25.00;57.80;;;;;;222245;1261;23755;-56
2023/09/04 14:10:54;;;;;;;7.30;2.60;;;25.10;57.20;;;;;;222381;1268;24723;-51
2023/09/04 14:15:56;;;;;;;6.10;2.50;;;25.10;57.50;;;;;;223475;1264;25584;-56
2023/09/04 14:21:02;;;;;;;5.30;2.30;;;25.10;57.20;;;;;;222357;1261;24193;-54
2023/09/04 14:26:07;;;;;;;6.80;2.10;;;24.80;56.80;;;;;;222404;1261;22613;-55
2023/09/04 14:31:14;;;;;;;7.30;2.60;;;24.80;57.50;;;;;;230311;1264;23244;-58
2023/09/04 14:36:16;;;;;;;1.40;1.30;;;24.90;56.80;;;;;;222745;1267;24220;-60
2023/09/04 14:41:22;;;;;;;3.40;1.90;;;25.10;56.30;;;;;;222479;1268;22559;-60
2023/09/04 14:46:25;;;;;;;5.10;2.20;;;25.00;55.60;;;;;;222594;1267;22486;-60
2023/09/04 14:51:28;;;;;;;3.50;2.00;;;24.80;54.90;;;;;;222228;1262;22654;-62
2023/09/04 14:56:31;;;;;;;2.50;2.30;;;24.70;54.60;;;;;;221923;1268;25479;-52
2023/09/04 15:01:33;;;;;;;2.60;1.80;;;24.70;54.60;;;;;;222338;1261;22534;-56
2023/09/04 15:06:38;;;;;;;3.50;1.70;;;24.70;54.70;;;;;;222292;1264;24193;-54
2023/09/04 15:11:40;;;;;;;2.60;1.80;;;24.70;54.50;;;;;;222587;1264;22516;-58
2023/09/04 15:16:43;;;;;;;3.70;2.30;;;24.70;55.00;;;;;;222536;1267;22530;-47
2023/09/04 15:21:46;;;;;;;5.40;1.90;;;24.70;55.70;;;;;;223915;1264;24203;-49
2023/09/04 15:26:49;;;;;;;9.00;2.00;;;24.70;55.60;;;;;;222276;1268;24134;-48
2023/09/04 15:31:53;;;;;;;2.70;2.00;;;24.80;57.50;;;;;;222508;1260;25350;-47
2023/09/04 15:36:55;;;;;;;3.50;1.60;;;24.80;57.60;;;;;;222240;1260;22520;-51
2023/09/04 15:41:58;;;;;;;2.80;2.10;;;24.90;59.10;;;;;;221931;1268;22550;-49
2023/09/04 15:47:01;;;;;;;6.30;2.00;;;24.90;60.30;;;;;;222080;1264;22744;-48
2023/09/04 15:52:05;;;;;;;8.20;1.90;;;24.90;61.20;;;;;;222449;1267;22524;-48
2023/09/04 15:57:08;;;;;;;6.30;2.20;;;24.90;60.00;;;;;;221979;1264;22524;-49
2023/09/04 16:02:11;;;;;;;3.80;2.00;;;24.90;60.10;;;;;;224339;1268;23505;-52
2023/09/04 16:07:15;;;;;;;5.30;1.90;;;24.80;59.50;;;;;;226362;1268;24296;-48
2023/09/04 16:12:19;;;;;;;2.40;2.10;;;24.80;59.00;;;;;;225699;1267;22565;-58
2023/09/04 16:17:22;;;;;;;7.30;2.40;;;24.90;58.10;;;;;;228424;1266;22815;-52
2023/09/04 16:22:26;;;;;;;6.40;2.20;;;24.90;58.60;;;;;;228485;1261;25423;-58
2023/09/04 16:27:28;;;;;;;2.70;2.30;;;25.00;59.50;;;;;;223134;1264;24384;-58
2023/09/04 16:32:32;;;;;;;2.40;1.80;;;25.00;59.60;;;;;;221902;1264;22647;-57
2023/09/04 16:37:36;;;;;;;2.10;1.90;;;24.90;60.50;;;;;;222348;1260;23931;-59
2023/09/04 16:42:39;;;;;;;4.20;2.10;;;24.80;60.70;;;;;;222753;1259;22532;-58
2023/09/04 16:47:42;;;;;;;3.00;2.00;;;24.70;61.40;;;;;;222650;1264;23893;-54
2023/09/04 16:52:46;;;;;;;3.60;2.00;;;24.70;61.80;;;;;;222404;1260;24315;-56
2023/09/04 16:57:49;;;;;;;2.80;2.50;;;24.70;63.30;;;;;;222706;1261;24336;-53
2023/09/04 17:02:52;;;;;;;3.50;2.40;;;24.70;62.80;;;;;;222650;1266;22718;-56
2023/09/04 17:07:56;;;;;;;10.50;2.60;;;24.90;65.80;;;;;;222774;1263;22538;-54
2023/09/04 17:13:00;;;;;;;2.90;1.90;;;25.00;66.70;;;;;;222394;1266;24680;-54
2023/09/04 17:18:04;;;;;;;6.40;2.40;;;25.10;67.40;;;;;;222646;1269;25367;-54
2023/09/04 17:23:08;;;;;;;3.00;2.30;;;24.90;66.10;;;;;;223542;1264;22521;-53
2023/09/04 17:28:11;;;;;;;8.70;2.60;;;24.80;66.10;;;;;;222309;1268;24256;-53
2023/09/04 17:33:15;;;;;;;8.80;2.60;;;24.70;65.40;;;;;;222558;1264;22592;-51
2023/09/04 17:38:20;;;;;;;9.70;2.90;;;24.70;65.20;;;;;;222330;1268;24416;-52
2023/09/04 17:43:24;;;;;;;13.10;3.10;;;24.50;63.80;;;;;;222323;1263;22528;-53
2023/09/04 17:48:29;;;;;;;9.90;2.90;;;24.50;64.00;;;;;;222411;1263;23402;-51
2023/09/04 17:53:34;;;;;;;10.70;3.40;;;24.40;63.40;;;;;;222321;1263;24225;-52
2023/09/04 17:58:38;;;;;;;8.30;3.10;;;24.30;63.40;;;;;;222182;1266;22952;-50
2023/09/04 18:03:42;;;;;;;11.60;3.90;;;24.20;63.60;;;;;;222750;1261;22523;-53
2023/09/04 18:08:46;;;;;;;8.70;3.20;;;24.10;63.30;;;;;;222809;1263;24351;-51
2023/09/04 18:13:50;;;;;;;9.60;3.30;;;24.10;63.20;;;;;;222524;1268;24227;-52
2023/09/04 18:18:54;;;;;;;6.50;3.40;;;24.20;63.10;;;;;;222896;1260;22533;-51
2023/09/04 18:23:57;;;;;;;10.10;3.70;;;24.30;62.50;;;;;;222526;1260;22527;-52
2023/09/04 18:29:01;;;;;;;6.10;3.80;;;24.20;63.30;;;;;;222667;1260;22586;-54
2023/09/04 18:34:06;;;;;;;6.80;4.50;;;24.10;62.10;;;;;;222673;1263;25323;-52
2023/09/04 18:39:10;;;;;;;4.60;4.20;;;24.10;62.50;;;;;;222907;1263;22483;-54
2023/09/04 18:44:14;;;;;;;4.00;3.30;;;24.00;62.70;;;;;;222482;1261;25655;-52
2023/09/04 18:49:29;;;;;;;10.00;4.00;;;23.90;63.50;;;;;;222801;1257;22606;-53
2023/09/04 18:54:35;;;;;;;5.90;4.10;;;23.90;63.30;;;;;;222684;1263;24536;-52
2023/09/04 18:59:39;;;;;;;5.20;3.90;;;24.00;63.50;;;;;;222780;1260;24195;-53
2023/09/04 19:04:43;;;;;;;7.60;4.30;;;23.90;63.90;;;;;;222554;1266;25560;-53
2023/09/04 19:09:51;;;;;;;6.20;3.90;;;24.00;64.30;;;;;;223030;1266;22568;-49
2023/09/04 19:14:55;;;;;;;4.30;3.80;;;23.90;64.60;;;;;;222475;1256;22569;-52
2023/09/04 19:19:59;;;;;;;5.90;3.70;;;23.80;64.90;;;;;;221682;1266;22575;-51
2023/09/04 19:25:05;;;;;;;4.70;3.70;;;23.70;65.60;;;;;;221768;1272;22674;-49
2023/09/04 19:30:17;;;;;;;4.10;3.70;;;23.80;64.70;;;;;;221842;1265;25246;-49
2023/09/04 19:35:26;;;;;;;7.60;4.10;;;23.80;64.70;;;;;;221849;1265;22560;-52
2023/09/04 19:40:29;;;;;;;11.10;4.80;;;23.80;64.60;;;;;;221588;1272;25365;-48
2023/09/04 19:45:35;;;;;;;5.80;3.80;;;23.80;65.00;;;;;;221938;1265;25310;-51
2023/09/04 19:50:39;;;;;;;9.40;4.00;;;23.70;65.20;;;;;;221999;1269;22653;-51
2023/09/04 19:55:43;;;;;;;10.80;4.00;;;23.70;65.20;;;;;;221823;1269;22524;-49
2023/09/04 20:00:47;;;;;;;5.80;4.40;;;23.70;65.50;;;;;;222495;1260;22544;-51
2023/09/04 20:05:51;;;;;;;8.70;4.60;;;23.60;65.70;;;;;;222834;1263;22514;-52
2023/09/04 20:10:55;;;;;;;10.40;4.80;;;23.70;65.40;;;;;;222739;1267;24296;-53
2023/09/04 20:16:02;;;;;;;6.80;4.00;;;23.80;64.80;;;;;;222451;1256;22523;-53
2023/09/04 20:21:08;;;;;;;14.60;4.30;;;24.10;66.00;;;;;;222736;1263;22608;-53
2023/09/04 20:26:16;;;;;;;7.00;4.40;;;24.20;66.20;;;;;;222772;1266;24410;-52
2023/09/04 20:31:20;;;;;;;9.20;4.70;;;24.30;65.70;;;;;;222660;1261;22599;-52
2023/09/04 20:36:23;;;;;;;5.60;4.00;;;24.30;65.60;;;;;;222473;1263;22528;-51
2023/09/04 20:41:27;;;;;;;4.20;3.80;;;24.30;66.00;;;;;;222417;1260;22804;-50
2023/09/04 20:46:31;;;;;;;5.50;3.90;;;24.30;65.50;;;;;;222597;1260;22639;-54
2023/09/04 20:51:34;;;;;;;5.70;3.70;;;24.30;65.40;;;;;;222534;1265;22732;-53
2023/09/04 20:56:37;;;;;;;6.30;4.00;;;24.20;65.60;;;;;;222277;1268;24246;-53
2023/09/04 21:01:39;;;;;;;4.80;3.60;;;24.20;65.50;;;;;;222516;1262;22638;-52
2023/09/04 21:06:44;;;;;;;11.00;4.40;;;24.30;65.60;;;;;;222315;1263;24256;-51
2023/09/04 23:25:44;;;;;;;5.60;3.50;;;24.20;66.70;;;;;;223368;1268;25294;-53
2023/09/04 23:30:56;;;;;;;6.70;3.10;;;24.20;66.50;;;;;;222616;1266;24238;-49
2023/09/04 23:36:14;;;;;;;3.70;3.40;;;24.20;66.50;;;;;;226938;1265;24256;-49
2023/09/04 23:46:40;;;;;;;3.30;2.90;;;24.30;66.10;;;;;;222561;1266;22514;-49
2023/09/04 23:51:43;;;;;;;3.70;2.90;;;24.20;66.40;;;;;;222262;1266;22521;-53
2023/09/04 23:56:46;;;;;;;3.50;2.90;;;24.20;66.50;;;;;;222411;1261;22515;-52
